Time;durP1;ratioP1;P1;durP2;ratioP2;P2;SDS_P1;SDS_P2;PMS_P1;PMS_P2;Temp;Humidity;BMP_temperature;BMP_pressure;BME280_temperature;BME280_humidity;BME280_pressure;Samples;Min_cycle;Max_cycle;Signal;HPM_P1;HPM_P2
2024/01/09 00:00:39;;;;;;;16.20;9.57;;;-2.30;15.30;;;;;;5065623;28;20453;-67
2024/01/09 00:03:07;;;;;;;14.03;8.70;;;-2.40;15.30;;;;;;5065866;28;20455;-67
2024/01/09 00:05:34;;;;;;;17.90;9.67;;;-2.40;15.30;;;;;;5066651;28;20463;-67
2024/01/09 00:08:01;;;;;;;21.83;11.10;;;-2.40;15.20;;;;;;5064021;28;20853;-67
2024/01/09 00:10:28;;;;;;;16.63;9.03;;;-2.40;15.30;;;;;;5065638;28;20463;-67
2024/01/09 00:12:56;;;;;;;20.03;10.60;;;-2.40;15.00;;;;;;5068058;28;20449;-68
2024/01/09 00:15:23;;;;;;;19.37;11.20;;;-2.40;15.10;;;;;;5049391;28;20467;-67
2024/01/09 00:17:49;;;;;;;18.50;10.20;;;-2.40;14.90;;;;;;5064493;28;20479;-67
2024/01/09 00:20:18;;;;;;;26.80;12.17;;;-2.40;15.10;;;;;;5067339;28;20461;-67
2024/01/09 00:22:44;;;;;;;19.47;10.17;;;-2.40;15.10;;;;;;5065601;28;20481;-67
2024/01/09 00:25:11;;;;;;;22.37;11.60;;;-2.50;15.20;;;;;;5062240;28;20584;-67
2024/01/09 00:27:38;;;;;;;19.10;11.30;;;-2.40;15.20;;;;;;5063010;28;20481;-67
2024/01/09 00:30:06;;;;;;;22.83;10.70;;;-2.40;15.00;;;;;;5061789;28;20496;-67
2024/01/09 00:32:33;;;;;;;20.47;11.23;;;-2.50;15.10;;;;;;5064302;28;20576;-67
2024/01/09 00:35:01;;;;;;;21.00;11.50;;;-2.40;15.10;;;;;;5066963;28;20544;-67
2024/01/09 00:37:29;;;;;;;20.70;11.13;;;-2.40;14.90;;;;;;5066041;28;20484;-68
2024/01/09 00:39:56;;;;;;;23.17;11.70;;;-2.40;14.70;;;;;;5063941;28;20465;-67
2024/01/09 00:42:22;;;;;;;19.50;11.40;;;-2.40;15.00;;;;;;5065673;28;20487;-67
2024/01/09 00:44:49;;;;;;;20.10;10.90;;;-2.40;14.90;;;;;;5065546;28;20584;-68
2024/01/09 00:47:16;;;;;;;22.33;10.97;;;-2.50;14.80;;;;;;5064510;28;20487;-66
2024/01/09 00:49:46;;;;;;;20.70;10.70;;;-2.50;14.80;;;;;;5064722;28;20607;-67
2024/01/09 00:52:12;;;;;;;18.03;11.43;;;-2.50;14.70;;;;;;5063973;28;20463;-67
2024/01/09 00:54:43;;;;;;;19.33;11.10;;;-2.60;14.80;;;;;;5066614;28;20472;-67
2024/01/09 00:57:10;;;;;;;18.77;11.00;;;-2.60;15.10;;;;;;5063952;28;20508;-67
2024/01/09 00:59:37;;;;;;;21.97;11.23;;;-2.60;15.10;;;;;;5066916;28;20457;-67
2024/01/09 01:02:04;;;;;;;15.53;10.23;;;-2.60;15.10;;;;;;5059517;28;20480;-66
2024/01/09 01:04:31;;;;;;;22.13;12.13;;;-2.60;15.00;;;;;;5064186;28;21149;-66
2024/01/09 01:06:58;;;;;;;20.27;11.53;;;-2.60;14.90;;;;;;5064492;28;20619;-66
2024/01/09 01:09:25;;;;;;;20.67;10.70;;;-2.60;15.10;;;;;;5064785;28;20463;-67
2024/01/09 01:11:53;;;;;;;25.23;12.70;;;-2.60;15.10;;;;;;5061466;28;20457;-67
2024/01/09 01:14:21;;;;;;;20.83;10.67;;;-2.60;14.90;;;;;;5063988;28;20468;-67
2024/01/09 01:16:48;;;;;;;22.50;11.70;;;-2.70;15.00;;;;;;5074632;28;20483;-67
2024/01/09 01:19:14;;;;;;;18.50;11.60;;;-2.70;15.20;;;;;;5090625;28;20485;-67
2024/01/09 01:21:41;;;;;;;19.53;11.67;;;-2.60;15.20;;;;;;5077179;28;20513;-67
2024/01/09 01:24:09;;;;;;;16.70;10.60;;;-2.70;15.00;;;;;;5066099;28;20453;-67
2024/01/09 01:26:37;;;;;;;20.53;11.10;;;-2.70;15.00;;;;;;5066626;28;20481;-67
2024/01/09 01:29:05;;;;;;;17.00;10.37;;;-2.70;15.00;;;;;;5066729;28;20937;-67
2024/01/09 01:31:32;;;;;;;23.07;11.53;;;-2.70;14.90;;;;;;5064493;28;20524;-67
2024/01/09 01:33:59;;;;;;;21.90;11.80;;;-2.70;15.10;;;;;;5064636;28;20453;-67
2024/01/09 01:36:26;;;;;;;20.07;12.03;;;-2.80;14.90;;;;;;5068344;28;20473;-67
2024/01/09 01:38:52;;;;;;;17.73;10.30;;;-2.80;15.00;;;;;;5069100;28;20483;-67
2024/01/09 01:41:19;;;;;;;17.57;11.00;;;-2.80;15.00;;;;;;5069961;28;20457;-67
2024/01/09 01:43:46;;;;;;;19.43;10.60;;;-2.80;14.90;;;;;;5068706;28;20544;-67
2024/01/09 01:46:14;;;;;;;22.90;13.40;;;-2.90;15.10;;;;;;5069592;28;20528;-67
2024/01/09 01:48:42;;;;;;;25.53;11.40;;;-2.90;15.10;;;;;;5068844;28;20546;-67
2024/01/09 01:51:09;;;;;;;18.83;11.03;;;-3.00;15.00;;;;;;5069412;28;20549;-66
2024/01/09 01:53:37;;;;;;;22.37;11.93;;;-3.00;15.10;;;;;;5064738;28;20449;-67
2024/01/09 01:56:04;;;;;;;17.03;9.83;;;-3.00;15.00;;;;;;5068886;28;20461;-68
2024/01/09 01:58:32;;;;;;;20.77;12.20;;;-3.10;15.00;;;;;;5069098;28;20463;-67
2024/01/09 02:01:00;;;;;;;18.47;10.37;;;-3.10;15.10;;;;;;5066671;28;20474;-67
2024/01/09 02:03:29;;;;;;;19.70;10.30;;;-3.10;15.20;;;;;;5064811;28;20479;-68
2024/01/09 02:05:56;;;;;;;21.87;12.47;;;-3.20;15.10;;;;;;5067479;28;20461;-67
2024/01/09 02:08:26;;;;;;;22.97;12.57;;;-3.20;15.30;;;;;;5066872;28;20464;-67
2024/01/09 02:10:53;;;;;;;21.87;11.40;;;-3.30;15.20;;;;;;5067823;28;20457;-66
2024/01/09 02:13:20;;;;;;;23.47;12.57;;;-3.30;15.20;;;;;;5070595;28;20564;-67
2024/01/09 02:15:47;;;;;;;19.97;11.57;;;-3.30;15.30;;;;;;5066913;28;20994;-67
2024/01/09 02:18:14;;;;;;;22.73;12.63;;;-3.40;15.30;;;;;;5068908;28;20472;-68
2024/01/09 02:20:43;;;;;;;18.87;10.97;;;-3.40;15.20;;;;;;5067213;28;20571;-68
2024/01/09 02:23:09;;;;;;;25.70;13.13;;;-3.40;15.30;;;;;;5068077;28;20481;-66
2024/01/09 02:25:36;;;;;;;22.90;12.60;;;-3.40;15.30;;;;;;5066376;28;20457;-68
2024/01/09 02:28:11;;;;;;;24.33;12.27;;;-3.40;15.40;;;;;;5068254;28;20516;-67
2024/01/09 02:30:40;;;;;;;24.57;10.63;;;-3.40;15.40;;;;;;5069028;28;20457;-68
2024/01/09 02:33:08;;;;;;;18.53;10.27;;;-3.40;15.20;;;;;;5068413;28;20460;-68
2024/01/09 02:35:35;;;;;;;21.33;10.87;;;-3.40;15.20;;;;;;5068867;28;20467;-66
2024/01/09 02:38:02;;;;;;;22.50;11.40;;;-3.50;15.20;;;;;;5065929;28;20995;-67
2024/01/09 02:40:29;;;;;;;26.00;13.47;;;-3.60;15.20;;;;;;5070552;28;20461;-66
2024/01/09 02:42:56;;;;;;;24.07;12.20;;;-3.60;15.30;;;;;;5067158;28;20483;-67
2024/01/09 02:45:23;;;;;;;20.27;11.53;;;-3.60;15.40;;;;;;5066365;28;20548;-67
2024/01/09 02:47:51;;;;;;;19.63;13.73;;;-3.60;15.40;;;;;;5068552;28;20932;-67
2024/01/09 02:50:20;;;;;;;21.60;12.60;;;-3.70;15.60;;;;;;5069769;28;20465;-67
2024/01/09 02:52:46;;;;;;;24.00;12.80;;;-3.70;15.50;;;;;;5067297;28;20816;-68
2024/01/09 02:55:14;;;;;;;22.17;11.50;;;-3.70;15.60;;;;;;5062980;28;20488;-67
2024/01/09 02:57:41;;;;;;;19.87;12.37;;;-3.70;15.50;;;;;;5068624;28;20511;-66
2024/01/09 03:00:09;;;;;;;20.37;12.00;;;-3.70;15.30;;;;;;5069110;28;20454;-66
2024/01/09 03:02:36;;;;;;;19.57;11.60;;;-3.80;15.40;;;;;;5064689;28;20471;-67
2024/01/09 03:05:06;;;;;;;19.67;10.40;;;-3.80;15.40;;;;;;5065903;28;20461;-68
2024/01/09 03:07:33;;;;;;;24.83;12.73;;;-3.80;15.50;;;;;;5069861;28;20488;-67
2024/01/09 03:10:00;;;;;;;20.80;10.80;;;-3.80;15.50;;;;;;5069237;28;20463;-67
2024/01/09 03:12:27;;;;;;;21.60;11.67;;;-3.70;15.50;;;;;;5064973;28;20470;-67
2024/01/09 03:14:53;;;;;;;25.10;12.40;;;-3.80;15.60;;;;;;5067065;28;20463;-67
2024/01/09 03:17:20;;;;;;;20.63;11.53;;;-3.90;15.70;;;;;;5069386;28;20487;-67
2024/01/09 03:19:47;;;;;;;22.20;11.50;;;-3.90;15.70;;;;;;5067073;28;20461;-67
2024/01/09 03:22:15;;;;;;;21.47;11.03;;;-3.90;15.60;;;;;;5068596;28;20469;-67
2024/01/09 03:24:42;;;;;;;23.30;12.57;;;-3.90;15.60;;;;;;5069330;28;20461;-67
2024/01/09 03:27:08;;;;;;;22.27;12.97;;;-3.80;15.50;;;;;;5068701;28;20481;-67
2024/01/09 03:29:35;;;;;;;22.77;12.60;;;-3.80;15.60;;;;;;5068936;28;20548;-67
2024/01/09 03:32:02;;;;;;;23.10;13.10;;;-3.80;15.50;;;;;;5068064;28;20469;-68
2024/01/09 03:34:29;;;;;;;22.30;12.03;;;-3.70;15.70;;;;;;5066060;28;20467;-67
2024/01/09 03:36:55;;;;;;;25.07;13.53;;;-3.80;15.50;;;;;;5068897;28;20476;-66
2024/01/09 03:39:24;;;;;;;21.67;11.57;;;-3.80;15.50;;;;;;5067101;28;20465;-67
2024/01/09 03:41:52;;;;;;;22.70;12.63;;;-3.70;15.60;;;;;;5065758;28;20832;-67
2024/01/09 03:44:18;;;;;;;18.43;9.67;;;-3.70;15.40;;;;;;5063301;28;20897;-67
2024/01/09 03:46:45;;;;;;;21.20;12.50;;;-3.70;15.30;;;;;;5069121;28;20544;-66
2024/01/09 03:49:12;;;;;;;21.10;12.67;;;-3.70;15.20;;;;;;5066300;28;20457;-66
2024/01/09 03:51:40;;;;;;;24.83;12.53;;;-3.70;15.40;;;;;;5068530;28;20449;-67
2024/01/09 03:54:06;;;;;;;20.07;12.30;;;-3.60;15.40;;;;;;5068109;28;20464;-67
2024/01/09 03:56:35;;;;;;;24.27;11.77;;;-3.60;15.40;;;;;;5063183;28;20572;-67
2024/01/09 03:59:01;;;;;;;26.60;14.17;;;-3.50;15.50;;;;;;5062891;28;20464;-67
2024/01/09 04:01:28;;;;;;;24.13;12.67;;;-3.60;15.10;;;;;;5065608;28;20457;-66
2024/01/09 04:03:56;;;;;;;21.13;11.10;;;-3.60;15.20;;;;;;5063317;28;20486;-66
2024/01/09 04:06:23;;;;;;;22.80;12.23;;;-3.50;15.30;;;;;;5066121;28;20473;-66
2024/01/09 04:08:50;;;;;;;28.33;13.67;;;-3.50;15.20;;;;;;5065855;28;20483;-66
2024/01/09 04:11:16;;;;;;;27.97;14.10;;;-3.50;15.20;;;;;;5066096;28;20960;-66
2024/01/09 04:13:45;;;;;;;20.80;11.70;;;-3.40;15.10;;;;;;5067242;28;20455;-66
2024/01/09 04:16:13;;;;;;;22.30;11.57;;;-3.40;14.70;;;;;;5066817;28;20465;-67
2024/01/09 04:18:40;;;;;;;23.10;13.37;;;-3.20;14.70;;;;;;5064355;28;20477;-66
2024/01/09 04:21:06;;;;;;;24.03;12.07;;;-3.40;14.40;;;;;;5068552;28;20460;-67
2024/01/09 04:23:33;;;;;;;23.70;11.70;;;-3.50;14.40;;;;;;5069615;28;20549;-66
2024/01/09 04:26:00;;;;;;;19.10;11.43;;;-3.50;14.70;;;;;;5092958;28;20465;-66
2024/01/09 04:28:27;;;;;;;27.50;13.07;;;-3.40;14.70;;;;;;5082998;28;20496;-66
2024/01/09 04:30:56;;;;;;;21.23;11.73;;;-3.50;14.90;;;;;;5067107;28;20572;-66
2024/01/09 04:33:22;;;;;;;26.00;13.13;;;-3.50;14.90;;;;;;5067724;28;20453;-67
2024/01/09 04:35:50;;;;;;;22.40;12.10;;;-3.40;15.40;;;;;;5068098;28;20544;-66
2024/01/09 04:38:16;;;;;;;24.23;12.90;;;-3.60;15.00;;;;;;5063806;28;20568;-67
2024/01/09 04:40:43;;;;;;;17.23;10.83;;;-3.60;15.50;;;;;;5063758;28;20457;-67
2024/01/09 04:43:10;;;;;;;21.43;13.63;;;-3.60;15.20;;;;;;5064085;28;20491;-67
2024/01/09 04:45:37;;;;;;;25.30;13.10;;;-3.60;15.20;;;;;;5065322;28;20461;-67
2024/01/09 04:48:06;;;;;;;28.97;14.70;;;-3.50;15.40;;;;;;5066623;28;20572;-67
2024/01/09 04:50:32;;;;;;;24.20;13.20;;;-3.60;15.40;;;;;;5068686;28;20463;-67
2024/01/09 04:52:59;;;;;;;24.17;12.80;;;-3.60;15.50;;;;;;5067218;28;20453;-67
2024/01/09 04:55:26;;;;;;;22.27;13.10;;;-3.50;15.60;;;;;;5063177;28;20480;-67
2024/01/09 04:57:53;;;;;;;24.23;12.03;;;-3.60;15.60;;;;;;5059931;28;20490;-66
2024/01/09 05:00:19;;;;;;;31.30;15.33;;;-3.60;15.60;;;;;;5061266;28;20492;-66
2024/01/09 05:02:46;;;;;;;23.90;12.97;;;-3.60;15.50;;;;;;5064850;28;20491;-67
2024/01/09 05:05:15;;;;;;;24.10;15.00;;;-3.60;15.60;;;;;;5062107;28;20460;-66
2024/01/09 05:07:42;;;;;;;22.23;12.60;;;-3.60;15.80;;;;;;5069074;28;20494;-66
2024/01/09 05:10:09;;;;;;;30.73;14.90;;;-3.50;15.80;;;;;;5071334;28;20455;-66
2024/01/09 05:12:36;;;;;;;27.13;13.93;;;-3.50;15.60;;;;;;5071644;28;20521;-66
2024/01/09 05:15:02;;;;;;;26.27;12.77;;;-3.50;15.70;;;;;;5070618;28;20464;-66
2024/01/09 05:17:29;;;;;;;21.97;12.87;;;-3.50;15.60;;;;;;5071387;28;21343;-66
2024/01/09 05:19:56;;;;;;;23.10;13.20;;;-3.50;15.50;;;;;;5072294;28;20562;-66
2024/01/09 05:22:24;;;;;;;20.50;12.70;;;-3.50;15.40;;;;;;5069257;28;20971;-66
2024/01/09 05:24:51;;;;;;;25.17;13.93;;;-3.50;15.40;;;;;;5070852;28;21011;-66
2024/01/09 05:27:19;;;;;;;26.70;13.73;;;-3.50;15.40;;;;;;5070308;28;20485;-66
2024/01/09 05:29:46;;;;;;;26.10;13.70;;;-3.50;15.40;;;;;;5067667;28;20474;-66
2024/01/09 05:32:13;;;;;;;28.57;14.47;;;-3.60;15.30;;;;;;5068348;28;20471;-66
2024/01/09 05:34:40;;;;;;;24.00;12.70;;;-3.60;15.40;;;;;;5070667;28;20452;-66
2024/01/09 05:37:07;;;;;;;24.07;13.27;;;-3.50;15.70;;;;;;5066338;28;20477;-66
2024/01/09 05:39:35;;;;;;;24.53;13.23;;;-3.60;15.60;;;;;;5070641;28;20457;-67
2024/01/09 05:42:03;;;;;;;20.30;11.73;;;-3.50;15.70;;;;;;5071324;28;20460;-66
2024/01/09 05:44:29;;;;;;;29.60;14.77;;;-3.60;15.60;;;;;;5071685;28;20495;-67
2024/01/09 05:46:56;;;;;;;23.00;12.13;;;-3.50;15.70;;;;;;5067015;28;20499;-65
2024/01/09 05:49:23;;;;;;;22.70;12.67;;;-3.60;15.70;;;;;;5070348;28;20483;-66
2024/01/09 05:51:50;;;;;;;22.80;13.13;;;-3.60;15.70;;;;;;5071512;28;20491;-67
2024/01/09 05:54:16;;;;;;;26.87;14.40;;;-3.50;15.50;;;;;;5068654;28;20556;-66
2024/01/09 05:56:45;;;;;;;26.70;14.87;;;-3.60;15.60;;;;;;5070015;28;20996;-66
2024/01/09 05:59:11;;;;;;;22.60;13.17;;;-3.60;15.60;;;;;;5066878;28;21936;-66
2024/01/09 06:01:38;;;;;;;27.93;15.07;;;-3.60;15.70;;;;;;5066275;28;20469;-66
2024/01/09 06:04:05;;;;;;;26.50;13.60;;;-3.60;15.70;;;;;;5070430;28;20570;-66
2024/01/09 06:06:33;;;;;;;28.30;14.97;;;-3.60;15.90;;;;;;5062574;28;21058;-67
2024/01/09 06:09:00;;;;;;;26.50;14.07;;;-3.60;15.60;;;;;;5065550;28;20457;-66
2024/01/09 06:11:27;;;;;;;25.07;13.10;;;-3.60;15.70;;;;;;5059410;22;20581;-65
2024/01/09 06:13:56;;;;;;;25.10;12.73;;;-3.60;15.60;;;;;;5029237;28;20455;-65
2024/01/09 06:16:23;;;;;;;25.83;14.50;;;-3.50;15.30;;;;;;5023816;28;20483;-66
2024/01/09 06:18:50;;;;;;;23.10;13.37;;;-3.60;15.40;;;;;;5007147;28;20462;-65
2024/01/09 06:21:16;;;;;;;28.23;14.27;;;-3.60;15.30;;;;;;5012601;28;20915;-65
2024/01/09 06:23:43;;;;;;;26.30;14.83;;;-3.60;15.50;;;;;;5006737;28;20478;-65
2024/01/09 06:26:10;;;;;;;28.47;14.50;;;-3.60;15.40;;;;;;5013159;28;20909;-66
2024/01/09 06:28:37;;;;;;;26.90;13.97;;;-3.60;15.30;;;;;;5011581;28;20827;-65
2024/01/09 06:31:05;;;;;;;24.97;12.33;;;-3.60;15.40;;;;;;5004396;28;21057;-67
2024/01/09 06:33:32;;;;;;;26.40;13.90;;;-3.50;15.40;;;;;;5000381;28;20447;-67
2024/01/09 06:35:58;;;;;;;25.27;14.30;;;-3.70;15.50;;;;;;5016174;28;20472;-67
2024/01/09 06:38:25;;;;;;;22.73;13.17;;;-3.70;15.40;;;;;;5010610;28;20474;-67
2024/01/09 06:40:52;;;;;;;24.37;13.70;;;-3.70;15.40;;;;;;5007422;28;20721;-67
2024/01/09 06:43:19;;;;;;;25.60;15.13;;;-3.70;15.40;;;;;;4997288;28;20509;-67
2024/01/09 06:45:45;;;;;;;26.00;14.70;;;-3.60;15.50;;;;;;5006071;28;20463;-67
2024/01/09 06:48:13;;;;;;;26.10;15.47;;;-3.70;15.40;;;;;;5005512;28;20554;-67
2024/01/09 06:50:40;;;;;;;25.43;13.57;;;-3.80;15.40;;;;;;5010803;28;20452;-67
2024/01/09 06:53:07;;;;;;;24.13;14.37;;;-3.80;15.40;;;;;;5010454;28;20467;-67
2024/01/09 06:55:34;;;;;;;23.17;13.20;;;-3.70;15.50;;;;;;5000154;28;20456;-67
2024/01/09 06:58:02;;;;;;;28.60;14.10;;;-3.80;15.50;;;;;;5008826;28;20480;-67
2024/01/09 07:00:29;;;;;;;24.77;14.03;;;-3.80;15.50;;;;;;4999014;28;20459;-67
2024/01/09 07:02:55;;;;;;;26.47;16.53;;;-3.80;15.70;;;;;;4996703;28;20456;-67
2024/01/09 07:05:23;;;;;;;25.27;14.10;;;-3.90;15.60;;;;;;5006455;28;21072;-67
2024/01/09 07:07:50;;;;;;;29.20;14.80;;;-3.80;15.70;;;;;;5008852;28;20719;-67
2024/01/09 07:10:17;;;;;;;21.50;12.30;;;-3.90;15.70;;;;;;5004935;28;20460;-67
2024/01/09 07:12:44;;;;;;;26.83;15.57;;;-3.80;15.60;;;;;;5008404;28;20467;-67
2024/01/09 07:15:13;;;;;;;28.20;15.70;;;-3.80;15.50;;;;;;5010822;28;20549;-67
2024/01/09 07:17:40;;;;;;;29.00;15.20;;;-3.70;15.60;;;;;;5014460;28;20481;-68
2024/01/09 07:20:08;;;;;;;28.60;15.23;;;-3.80;15.50;;;;;;5014387;28;20463;-67
2024/01/09 07:22:36;;;;;;;27.97;13.73;;;-3.80;15.50;;;;;;5010072;28;20518;-67
2024/01/09 07:25:04;;;;;;;20.00;11.83;;;-3.70;15.30;;;;;;5007088;28;20479;-67
2024/01/09 07:27:30;;;;;;;23.30;12.77;;;-3.90;15.30;;;;;;5013663;28;20502;-67
2024/01/09 07:29:57;;;;;;;27.93;14.33;;;-3.90;15.50;;;;;;5007498;28;20460;-67
2024/01/09 07:32:25;;;;;;;26.40;14.90;;;-3.90;15.50;;;;;;5009646;28;20472;-67
2024/01/09 07:34:52;;;;;;;27.90;13.90;;;-3.90;15.30;;;;;;5007285;28;20475;-67
2024/01/09 07:37:19;;;;;;;28.60;15.47;;;-3.90;15.30;;;;;;5008623;28;20590;-67
2024/01/09 07:39:48;;;;;;;24.83;13.80;;;-3.90;15.50;;;;;;5000481;28;20467;-67
2024/01/09 07:42:15;;;;;;;26.70;14.97;;;-4.00;15.40;;;;;;5006691;28;20452;-67
2024/01/09 07:44:42;;;;;;;23.63;12.37;;;-4.00;15.50;;;;;;5013409;28;20480;-67
2024/01/09 07:47:11;;;;;;;29.17;15.20;;;-3.90;15.70;;;;;;5009021;28;20567;-67
2024/01/09 07:49:37;;;;;;;28.40;14.60;;;-3.90;15.50;;;;;;5009885;28;20483;-67
2024/01/09 07:52:05;;;;;;;25.70;14.30;;;-3.90;15.40;;;;;;5006970;28;20452;-67
2024/01/09 07:54:32;;;;;;;25.57;14.00;;;-3.90;15.40;;;;;;5010423;28;20459;-67
2024/01/09 07:57:00;;;;;;;29.63;16.13;;;-4.00;15.30;;;;;;5006333;28;20481;-67
2024/01/09 07:59:27;;;;;;;26.43;14.80;;;-3.80;15.30;;;;;;5002865;28;20549;-67
2024/01/09 08:01:55;;;;;;;25.80;12.60;;;-3.90;15.40;;;;;;5012763;28;20554;-67
2024/01/09 08:04:22;;;;;;;24.70;13.93;;;-3.90;15.30;;;;;;5003896;28;20481;-67
2024/01/09 08:06:50;;;;;;;21.87;13.40;;;-3.90;15.10;;;;;;5002498;28;20488;-67
2024/01/09 08:09:19;;;;;;;25.50;12.77;;;-3.90;15.20;;;;;;5007352;28;20444;-67
2024/01/09 08:11:46;;;;;;;25.00;13.00;;;-3.90;15.20;;;;;;5002112;28;20499;-67
2024/01/09 08:14:15;;;;;;;23.83;12.87;;;-3.90;15.10;;;;;;5006240;28;20452;-67
2024/01/09 08:16:42;;;;;;;24.00;13.87;;;-3.70;15.00;;;;;;4999861;28;20484;-67
2024/01/09 08:19:09;;;;;;;27.50;14.37;;;-3.80;14.60;;;;;;5007137;28;20554;-67
2024/01/09 08:21:36;;;;;;;26.53;13.17;;;-3.80;14.70;;;;;;5007175;28;20475;-67
2024/01/09 08:24:03;;;;;;;24.43;13.77;;;-3.70;14.90;;;;;;5005228;28;20491;-67
2024/01/09 08:26:30;;;;;;;28.10;13.80;;;-3.80;14.80;;;;;;5005646;28;20477;-67
2024/01/09 08:28:57;;;;;;;25.90;14.70;;;-3.80;14.60;;;;;;5010276;28;20531;-67
2024/01/09 08:31:25;;;;;;;24.63;13.70;;;-3.80;14.50;;;;;;5003393;28;20558;-67
2024/01/09 08:33:52;;;;;;;21.63;12.43;;;-3.80;14.50;;;;;;4993957;28;20573;-67
2024/01/09 08:36:18;;;;;;;25.60;14.53;;;-3.80;14.70;;;;;;5001949;28;20586;-67
2024/01/09 08:38:45;;;;;;;27.87;12.83;;;-3.60;14.70;;;;;;5005303;28;20467;-67
2024/01/09 08:41:12;;;;;;;25.57;13.13;;;-3.80;14.40;;;;;;5012647;28;20460;-67
2024/01/09 08:43:40;;;;;;;27.37;13.70;;;-3.90;14.60;;;;;;5006464;28;20937;-67
2024/01/09 08:46:07;;;;;;;23.47;14.70;;;-3.80;14.50;;;;;;5003030;28;20547;-67
2024/01/09 08:48:35;;;;;;;22.60;13.17;;;-3.80;14.40;;;;;;5007681;28;20460;-67
2024/01/09 08:51:02;;;;;;;25.80;14.47;;;-3.80;14.40;;;;;;5008346;28;20460;-67
2024/01/09 08:53:29;;;;;;;23.07;12.93;;;-3.80;14.40;;;;;;5002695;28;20792;-67
2024/01/09 08:55:56;;;;;;;25.90;14.03;;;-3.70;14.50;;;;;;5008808;28;20462;-67
2024/01/09 08:58:24;;;;;;;25.00;13.90;;;-3.60;14.50;;;;;;5007390;28;20464;-67
2024/01/09 09:00:52;;;;;;;23.97;12.40;;;-3.60;14.30;;;;;;5003447;28;20463;-67
2024/01/09 09:03:18;;;;;;;25.37;13.80;;;-3.70;14.10;;;;;;5005446;28;20895;-67
2024/01/09 09:05:46;;;;;;;27.27;13.57;;;-3.60;13.90;;;;;;5000214;28;20476;-67
2024/01/09 09:08:13;;;;;;;27.47;13.93;;;-3.60;14.00;;;;;;5006077;28;21119;-67
2024/01/09 09:10:40;;;;;;;34.10;15.67;;;-3.60;14.00;;;;;;5005576;28;20714;-67
2024/01/09 09:13:07;;;;;;;26.20;13.60;;;-3.70;14.10;;;;;;5007478;28;20551;-67
2024/01/09 09:15:34;;;;;;;26.23;14.77;;;-3.70;13.80;;;;;;5006146;28;20471;-67
2024/01/09 09:18:01;;;;;;;22.00;11.50;;;-3.70;13.80;;;;;;5007001;28;20506;-67
2024/01/09 09:20:28;;;;;;;30.10;16.13;;;-3.70;13.60;;;;;;5006577;28;20574;-67
2024/01/09 09:22:56;;;;;;;27.30;13.67;;;-3.70;13.80;;;;;;5005497;28;20471;-67
2024/01/09 09:25:23;;;;;;;18.17;9.70;;;-3.60;13.90;;;;;;5003000;28;20860;-67
2024/01/09 09:27:49;;;;;;;28.37;14.77;;;-3.60;13.90;;;;;;5005088;28;20480;-67
2024/01/09 09:30:16;;;;;;;22.20;13.90;;;-3.60;13.60;;;;;;5006664;28;20463;-68
2024/01/09 09:32:43;;;;;;;26.67;14.03;;;-3.60;14.00;;;;;;4999173;28;20988;-67
2024/01/09 09:35:10;;;;;;;23.87;12.57;;;-3.50;14.00;;;;;;5006658;28;20455;-67
2024/01/09 09:37:37;;;;;;;27.67;13.60;;;-3.50;14.00;;;;;;5002741;28;20490;-67
2024/01/09 09:40:06;;;;;;;26.37;14.07;;;-3.40;13.80;;;;;;5003858;28;20470;-67
2024/01/09 09:42:36;;;;;;;24.53;12.97;;;-3.40;13.50;;;;;;5004841;28;20907;-67
2024/01/09 09:45:10;;;;;;;26.73;13.97;;;-3.40;13.10;;;;;;5003326;28;20488;-67
2024/01/09 09:47:38;;;;;;;24.70;13.53;;;-3.50;12.90;;;;;;5005889;28;20927;-67
2024/01/09 09:50:08;;;;;;;26.33;15.47;;;-3.50;13.10;;;;;;5007201;28;20551;-67
2024/01/09 09:52:39;;;;;;;24.70;12.93;;;-3.40;13.20;;;;;;5004287;28;20456;-67
2024/01/09 09:55:09;;;;;;;27.80;14.87;;;-3.40;13.20;;;;;;5006986;28;20459;-67
2024/01/09 09:57:36;;;;;;;24.47;13.70;;;-3.30;13.00;;;;;;5008341;28;20513;-67
2024/01/09 10:00:05;;;;;;;23.03;13.00;;;-3.20;12.70;;;;;;5009635;28;20459;-67
2024/01/09 10:02:34;;;;;;;26.80;13.27;;;-3.20;12.50;;;;;;5001061;28;20472;-67
2024/01/09 10:05:10;;;;;;;25.53;12.70;;;-3.10;12.20;;;;;;5006037;28;20490;-67
2024/01/09 10:07:40;;;;;;;21.40;12.00;;;-3.10;12.30;;;;;;5003487;28;20482;-67
2024/01/09 10:10:09;;;;;;;27.73;14.43;;;-2.80;12.00;;;;;;5007461;28;20460;-67
2024/01/09 10:12:36;;;;;;;28.43;13.63;;;-2.80;11.70;;;;;;5010670;28;20535;-67
2024/01/09 10:15:08;;;;;;;27.87;14.87;;;-2.70;11.60;;;;;;5010264;28;20466;-67
2024/01/09 10:17:35;;;;;;;27.50;15.13;;;-2.70;11.60;;;;;;5009366;28;20562;-67
2024/01/09 10:20:04;;;;;;;27.90;14.70;;;-2.40;11.50;;;;;;5003087;28;20465;-67
2024/01/09 10:22:33;;;;;;;27.40;14.57;;;-2.40;10.90;;;;;;5005144;28;20451;-67
2024/01/09 10:25:00;;;;;;;28.30;15.40;;;-2.40;10.40;;;;;;5005247;28;20779;-67
2024/01/09 10:27:28;;;;;;;28.00;15.40;;;-2.30;10.50;;;;;;5009797;28;20560;-67
2024/01/09 10:29:55;;;;;;;28.73;14.50;;;-2.30;10.50;;;;;;5008234;28;20466;-67
2024/01/09 10:32:22;;;;;;;26.10;14.93;;;-2.20;10.20;;;;;;5007816;28;20598;-67
2024/01/09 10:34:48;;;;;;;27.73;15.03;;;-2.10;10.20;;;;;;5011201;28;20829;-67
2024/01/09 10:37:15;;;;;;;25.47;14.20;;;-2.00;9.90;;;;;;5006719;28;21058;-67
2024/01/09 10:39:47;;;;;;;24.80;14.10;;;-1.70;10.40;;;;;;5009636;28;20509;-67
2024/01/09 10:42:14;;;;;;;22.83;13.33;;;-1.50;9.00;;;;;;5008995;28;20463;-67
2024/01/09 10:44:42;;;;;;;28.70;15.33;;;-1.50;9.10;;;;;;5008571;28;20479;-67
2024/01/09 10:47:10;;;;;;;22.80;13.30;;;-1.30;9.00;;;;;;5010495;28;20480;-67
2024/01/09 10:49:40;;;;;;;23.67;13.43;;;-1.30;9.10;;;;;;5013721;28;20522;-67
2024/01/09 10:52:11;;;;;;;27.90;15.80;;;-1.20;8.00;;;;;;5006060;28;20555;-67
2024/01/09 10:54:39;;;;;;;26.27;13.73;;;-1.10;8.30;;;;;;5003231;28;20931;-67
2024/01/09 10:57:07;;;;;;;25.43;14.67;;;-0.60;8.40;;;;;;5011893;28;20475;-67
2024/01/09 10:59:36;;;;;;;25.10;13.40;;;-0.20;7.90;;;;;;5010855;28;20968;-67
2024/01/09 11:02:05;;;;;;;21.60;12.90;;;0.20;6.10;;;;;;5013680;28;20554;-67
2024/01/09 11:04:32;;;;;;;23.20;13.60;;;0.50;4.80;;;;;;5009712;28;20583;-67
2024/01/09 11:06:59;;;;;;;23.70;13.47;;;0.70;4.70;;;;;;5006812;28;21014;-67
2024/01/09 11:09:28;;;;;;;25.77;14.50;;;1.00;3.70;;;;;;5008579;28;20455;-67
2024/01/09 11:11:55;;;;;;;29.90;14.67;;;1.20;3.10;;;;;;5006072;28;20997;-67
2024/01/09 11:14:24;;;;;;;23.73;13.20;;;1.40;2.60;;;;;;5009776;28;20459;-67
2024/01/09 11:16:54;;;;;;;24.93;15.50;;;1.70;1.50;;;;;;5002561;28;20562;-67
2024/01/09 11:19:22;;;;;;;21.83;13.13;;;2.20;1.50;;;;;;5010320;28;20550;-67
2024/01/09 11:21:49;;;;;;;25.30;14.43;;;2.70;1.00;;;;;;5010053;28;20558;-67
2024/01/09 11:24:24;;;;;;;24.07;14.70;;;3.50;1.00;;;;;;5011164;28;20466;-67
2024/01/09 11:27:10;;;;;;;24.60;13.57;;;4.20;1.00;;;;;;5005103;28;21050;-67
2024/01/09 11:29:50;;;;;;;22.63;13.47;;;4.60;1.00;;;;;;5009342;28;20971;-67
2024/01/09 11:32:17;;;;;;;23.47;13.27;;;4.90;1.00;;;;;;5005458;28;20468;-68
2024/01/09 11:34:46;;;;;;;21.33;13.80;;;5.30;1.00;;;;;;5002763;28;20469;-68
2024/01/09 11:37:14;;;;;;;21.80;13.70;;;5.80;1.00;;;;;;5004417;28;20570;-65
2024/01/09 11:39:42;;;;;;;19.37;11.90;;;6.00;1.00;;;;;;5002015;28;20547;-66
2024/01/09 11:42:09;;;;;;;22.00;13.27;;;6.00;1.00;;;;;;5004784;28;20463;-65
2024/01/09 11:44:35;;;;;;;22.13;13.40;;;5.70;1.00;;;;;;5005916;28;20482;-66
2024/01/09 11:47:02;;;;;;;22.67;13.50;;;5.60;1.00;;;;;;5005882;28;20909;-66
2024/01/09 11:49:29;;;;;;;23.60;13.87;;;5.60;1.00;;;;;;5008890;28;20539;-66
2024/01/09 11:51:58;;;;;;;20.90;13.03;;;5.70;1.00;;;;;;5001377;28;20484;-66
2024/01/09 11:54:25;;;;;;;21.40;14.07;;;5.80;1.00;;;;;;5007364;28;20458;-66
2024/01/09 11:56:52;;;;;;;25.50;14.50;;;5.70;1.00;;;;;;4999772;28;20634;-66
2024/01/09 11:59:19;;;;;;;21.80;13.83;;;5.60;1.00;;;;;;5001492;28;20938;-66
2024/01/09 12:01:46;;;;;;;21.90;13.40;;;5.60;1.00;;;;;;5006561;28;20558;-66
2024/01/09 12:04:14;;;;;;;24.57;15.20;;;5.50;1.00;;;;;;5008673;28;20971;-67
2024/01/09 12:06:41;;;;;;;20.60;12.10;;;5.60;1.00;;;;;;5004596;28;20490;-66
2024/01/09 12:09:10;;;;;;;21.83;13.70;;;5.90;1.00;;;;;;5001022;28;20457;-66
2024/01/09 12:11:37;;;;;;;20.70;14.10;;;6.40;1.00;;;;;;5006653;28;20464;-66
2024/01/09 12:14:07;;;;;;;20.93;13.50;;;6.60;1.00;;;;;;5008296;28;20538;-66
2024/01/09 12:16:34;;;;;;;20.23;12.43;;;6.40;1.00;;;;;;5008489;28;20483;-66
2024/01/09 12:19:01;;;;;;;18.53;12.43;;;6.10;1.00;;;;;;5005358;28;20550;-66
2024/01/09 12:21:29;;;;;;;22.47;13.17;;;5.60;1.00;;;;;;5004601;28;20458;-66
2024/01/09 12:23:59;;;;;;;19.13;13.40;;;5.40;1.00;;;;;;5005573;28;20460;-66
2024/01/09 12:26:28;;;;;;;22.77;13.33;;;5.20;1.00;;;;;;5006475;28;20494;-66
2024/01/09 12:28:55;;;;;;;23.03;13.00;;;4.90;1.00;;;;;;5003211;28;21429;-66
2024/01/09 12:31:24;;;;;;;19.27;12.63;;;5.00;1.00;;;;;;5009262;28;20472;-66